Repülésmeteorológia

METAR


Utolsó módosítás időpontja: 2024-04-21 17:20:00
504
SAHU41 HASM 211730
METAR LHSM 211715Z AUTO 01010KT CAVOK 08/01 Q1015

TAF


Utolsó módosítás időpontja: 2024-04-21 17:25:00
505
FCHU99 LHSM 211700
TAF LHSM 211700Z NIL